Time;durP1;ratioP1;P1;durP2;ratioP2;P2;SDS_P1;SDS_P2;PMS_P1;PMS_P2;Temp;Humidity;BMP_temperature;BMP_pressure;BME280_temperature;BME280_humidity;BME280_pressure;Samples;Min_cycle;Max_cycle;Signal;HPM_P1;HPM_P2
2021/08/01 00:00:49;;;;;;;;;;;16.50;99.90;;;;;;5063297;28;20014;-58
2021/08/01 00:03:39;;;;;;;;;;;16.50;99.90;;;;;;5067779;28;19948;-56
2021/08/01 00:06:45;;;;;;;;;;;16.50;99.90;;;;;;5070125;28;19946;-56
2021/08/01 00:09:33;;;;;;;;;;;16.50;99.90;;;;;;5077507;28;19939;-56
2021/08/01 00:12:22;;;;;;;;;;;16.60;99.90;;;;;;5086108;28;19943;-56
2021/08/01 00:15:12;;;;;;;;;;;16.60;99.90;;;;;;5070715;28;20283;-55
2021/08/01 00:18:01;;;;;;;;;;;16.60;99.90;;;;;;5072648;28;20326;-55
2021/08/01 00:20:51;;;;;;;;;;;16.60;99.90;;;;;;5076653;28;20330;-56
2021/08/01 00:23:39;;;;;;;;;;;16.70;99.90;;;;;;5072806;28;19925;-55
2021/08/01 00:26:28;;;;;;;;;;;16.70;99.90;;;;;;5071942;28;19925;-55
2021/08/01 00:29:16;;;;;;;;;;;16.80;99.90;;;;;;5072617;28;19940;-55
2021/08/01 00:32:06;;;;;;;;;;;16.80;99.90;;;;;;5066533;28;20280;-56
2021/08/01 00:34:55;;;;;;;;;;;16.70;99.90;;;;;;5071791;28;20022;-56
2021/08/01 00:37:46;;;;;;;;;;;16.70;99.90;;;;;;5074608;28;20286;-55
2021/08/01 00:40:36;;;;;;;;;;;16.60;99.90;;;;;;5071947;28;20004;-56
2021/08/01 00:43:25;;;;;;;;;;;16.60;99.90;;;;;;5097476;28;19948;-56
2021/08/01 00:49:30;;;;;;;;;;;16.50;99.90;;;;;;5070987;28;19978;-58
2021/08/01 00:52:18;;;;;;;;;;;16.40;99.90;;;;;;5074864;28;19946;-56
2021/08/01 00:55:10;;;;;;;;;;;16.30;99.90;;;;;;5100193;28;20089;-56
2021/08/01 00:58:00;;;;;;;;;;;16.30;99.90;;;;;;5070365;28;19932;-55
2021/08/01 01:01:07;;;;;;;;;;;16.20;99.90;;;;;;5066279;28;19924;-55
2021/08/01 01:04:07;;;;;;;;;;;16.20;99.90;;;;;;5099753;27;19925;-55
2021/08/01 01:06:59;;;;;;;;;;;16.20;99.90;;;;;;5100954;27;19932;-56
2021/08/01 01:09:54;;;;;;;;;;;16.20;99.90;;;;;;5071929;28;19924;-56
2021/08/01 01:13:04;;;;;;;;;;;16.10;99.90;;;;;;5076258;28;20385;-56
2021/08/01 01:15:54;;;;;;;;;;;16.00;99.90;;;;;;5073185;28;19932;-56
2021/08/01 01:18:46;;;;;;;;;;;16.00;99.90;;;;;;5071848;28;20402;-56
2021/08/01 01:21:44;;;;;;;;;;;15.90;99.90;;;;;;5100283;27;19924;-56
2021/08/01 01:24:34;;;;;;;;;;;15.80;99.90;;;;;;5073788;28;19974;-56
2021/08/01 01:27:33;;;;;;;;;;;15.70;99.90;;;;;;5097508;28;19994;-56
2021/08/01 01:30:24;;;;;;;;;;;15.70;99.90;;;;;;5064163;28;19924;-57
2021/08/01 01:33:17;;;;;;;;;;;15.60;99.90;;;;;;5069299;28;19928;-55
2021/08/01 01:36:08;;;;;;;;;;;15.50;99.90;;;;;;5081532;28;19925;-56
2021/08/01 01:38:58;;;;;;;;;;;15.40;99.90;;;;;;5072220;28;19947;-56
2021/08/01 01:42:01;;;;;;;;;;;15.40;99.90;;;;;;5099302;28;19947;-56
2021/08/01 01:45:04;;;;;;;;;;;15.40;99.90;;;;;;5089163;28;19963;-56
2021/08/01 01:47:57;;;;;;;;;;;15.30;99.90;;;;;;5068775;28;19924;-59
2021/08/01 01:50:47;;;;;;;;;;;15.20;99.90;;;;;;5074509;28;19947;-57
2021/08/01 01:53:37;;;;;;;;;;;15.30;99.90;;;;;;5096848;28;19924;-56
2021/08/01 01:56:31;;;;;;;;;;;15.40;99.90;;;;;;5098610;28;19924;-57
2021/08/01 01:59:20;;;;;;;;;;;15.40;99.90;;;;;;5097641;28;19928;-56
2021/08/01 02:02:09;;;;;;;;;;;15.30;99.90;;;;;;5069014;28;19924;-56
2021/08/01 02:04:58;;;;;;;;;;;15.20;99.90;;;;;;5099294;28;19971;-56
2021/08/01 02:07:53;;;;;;;;;;;15.00;99.90;;;;;;5077089;28;19924;-56
2021/08/01 02:11:01;;;;;;;;;;;14.90;99.90;;;;;;5075406;28;19924;-56
2021/08/01 02:14:04;;;;;;;;;;;14.90;99.90;;;;;;5098461;28;20015;-57
2021/08/01 02:16:56;;;;;;;;;;;14.90;99.90;;;;;;5092829;28;19925;-57
2021/08/01 02:19:45;;;;;;;;;;;14.90;99.90;;;;;;5080502;28;19924;-57
2021/08/01 02:22:37;;;;;;;;;;;14.80;99.90;;;;;;5071425;28;20310;-56
2021/08/01 02:25:28;;;;;;;;;;;14.80;99.90;;;;;;5097983;27;19939;-56
2021/08/01 02:28:17;;;;;;;;;;;14.70;99.90;;;;;;5074819;28;19924;-56
2021/08/01 02:31:08;;;;;;;;;;;14.60;99.90;;;;;;5092420;27;19979;-56
2021/08/01 02:33:57;;;;;;;;;;;14.70;99.90;;;;;;5071397;28;19929;-56
2021/08/01 02:36:46;;;;;;;;;;;14.70;99.90;;;;;;5073856;28;19924;-56
2021/08/01 02:39:36;;;;;;;;;;;14.80;99.90;;;;;;5068591;28;19940;-56
2021/08/01 02:42:26;;;;;;;;;;;14.80;99.90;;;;;;5095650;28;19931;-56
2021/08/01 02:45:18;;;;;;;;;;;14.80;99.90;;;;;;5061997;28;20028;-56
2021/08/01 02:48:11;;;;;;;;;;;14.80;99.90;;;;;;5098096;28;19931;-56
2021/08/01 02:51:01;;;;;;;;;;;14.80;99.90;;;;;;5097488;28;19937;-56
2021/08/01 02:53:54;;;;;;;;;;;14.80;99.90;;;;;;5097815;28;21446;-59
2021/08/01 02:56:45;;;;;;;;;;;14.90;99.90;;;;;;5082245;28;20013;-56
2021/08/01 02:59:34;;;;;;;;;;;14.90;99.90;;;;;;5073750;28;20007;-56
2021/08/01 03:02:25;;;;;;;;;;;14.90;99.90;;;;;;5087027;28;19915;-56
2021/08/01 03:05:22;;;;;;;;;;;14.90;99.90;;;;;;5075593;28;19986;-56
2021/08/01 03:08:12;;;;;;;;;;;14.80;99.90;;;;;;5085991;28;20066;-56
2021/08/01 03:11:01;;;;;;;;;;;14.80;99.90;;;;;;5075660;28;20009;-56
2021/08/01 03:13:50;;;;;;;;;;;14.70;99.90;;;;;;5070353;28;19928;-56
2021/08/01 03:16:39;;;;;;;;;;;14.70;99.90;;;;;;5067401;28;19925;-56
2021/08/01 03:19:28;;;;;;;;;;;14.70;99.90;;;;;;5076546;28;19928;-56
2021/08/01 03:22:18;;;;;;;;;;;14.70;99.90;;;;;;5070081;28;19998;-56
2021/08/01 03:25:07;;;;;;;;;;;14.60;99.90;;;;;;5072920;28;19932;-56
2021/08/01 03:27:56;;;;;;;;;;;14.50;99.90;;;;;;5075464;28;19932;-56
2021/08/01 03:30:45;;;;;;;;;;;14.50;99.90;;;;;;5067548;28;19931;-56
2021/08/01 03:33:34;;;;;;;;;;;14.50;99.90;;;;;;5072830;28;19931;-57
2021/08/01 03:36:23;;;;;;;;;;;14.50;99.90;;;;;;5071781;28;19925;-56
2021/08/01 03:39:35;;;;;;;;;;;14.50;99.90;;;;;;5073076;28;19924;-56
2021/08/01 03:42:25;;;;;;;;;;;14.50;99.90;;;;;;5070484;28;19928;-56
2021/08/01 03:45:14;;;;;;;;;;;14.50;99.90;;;;;;5065915;28;19924;-56
2021/08/01 03:48:03;;;;;;;;;;;14.50;99.90;;;;;;5075106;28;19947;-56
2021/08/01 03:50:53;;;;;;;;;;;14.50;99.90;;;;;;5074420;28;19971;-56
2021/08/01 03:53:42;;;;;;;;;;;14.60;99.90;;;;;;5075871;28;19925;-57
2021/08/01 03:56:33;;;;;;;;;;;14.50;99.90;;;;;;5101262;28;19931;-56
2021/08/01 03:59:21;;;;;;;;;;;14.50;99.90;;;;;;5082138;28;19931;-56
2021/08/01 04:02:10;;;;;;;;;;;14.50;99.90;;;;;;5070439;28;19939;-56
2021/08/01 04:04:59;;;;;;;;;;;14.50;99.90;;;;;;5076591;28;19951;-56
2021/08/01 04:07:47;;;;;;;;;;;14.50;99.90;;;;;;5076529;28;20309;-56
2021/08/01 04:10:36;;;;;;;;;;;14.40;99.90;;;;;;5078230;28;20010;-58
2021/08/01 04:13:27;;;;;;;;;;;14.40;99.90;;;;;;5083273;28;19928;-56
2021/08/01 04:16:16;;;;;;;;;;;14.30;99.90;;;;;;5069356;28;19928;-56
2021/08/01 04:19:07;;;;;;;;;;;14.20;99.90;;;;;;5080391;28;19932;-56
2021/08/01 04:21:55;;;;;;;;;;;14.30;99.90;;;;;;5067892;28;20067;-57
2021/08/01 04:24:44;;;;;;;;;;;14.20;99.90;;;;;;5078272;28;19924;-56
2021/08/01 04:27:33;;;;;;;;;;;14.20;99.90;;;;;;5077038;28;19928;-56
2021/08/01 04:30:23;;;;;;;;;;;14.20;99.90;;;;;;5069080;28;19932;-56
2021/08/01 04:33:12;;;;;;;;;;;14.20;99.90;;;;;;5073526;28;19924;-56
2021/08/01 04:36:00;;;;;;;;;;;14.40;99.90;;;;;;5072240;28;20357;-57
2021/08/01 04:39:14;;;;;;;;;;;14.40;99.90;;;;;;5076056;28;19925;-56
2021/08/01 04:42:03;;;;;;;;;;;14.40;99.90;;;;;;5073345;28;19969;-56
2021/08/01 04:44:52;;;;;;;;;;;14.50;99.90;;;;;;5086614;28;19924;-56
2021/08/01 04:48:06;;;;;;;;;;;14.60;99.90;;;;;;5079349;28;19924;-58
2021/08/01 04:50:56;;;;;;;;;;;14.50;99.90;;;;;;5077504;28;19924;-56
2021/08/01 04:53:45;;;;;;;;;;;14.50;99.90;;;;;;5074889;28;19925;-56
2021/08/01 04:56:34;;;;;;;;;;;14.50;99.90;;;;;;5084780;28;19934;-56
2021/08/01 04:59:22;;;;;;;;;;;14.60;99.90;;;;;;5077057;28;19925;-56
2021/08/01 05:02:11;;;;;;;;;;;14.60;99.90;;;;;;5069169;28;19939;-56
2021/08/01 05:05:00;;;;;;;;;;;14.70;99.90;;;;;;5074323;28;19924;-57
2021/08/01 05:07:50;;;;;;;;;;;14.70;99.90;;;;;;5077526;28;19932;-56
2021/08/01 05:10:39;;;;;;;;;;;14.70;99.90;;;;;;5073628;28;20271;-56
2021/08/01 05:13:28;;;;;;;;;;;14.70;99.90;;;;;;5073530;28;19925;-56
2021/08/01 05:16:18;;;;;;;;;;;14.80;99.90;;;;;;5064906;28;19934;-56
2021/08/01 05:19:09;;;;;;;;;;;14.80;99.90;;;;;;5074160;28;19931;-57
2021/08/01 05:21:57;;;;;;;;;;;14.80;99.90;;;;;;5076504;28;19932;-56
2021/08/01 05:24:47;;;;;;;;;;;14.90;99.90;;;;;;5074637;28;20292;-56
2021/08/01 05:27:36;;;;;;;;;;;14.80;99.90;;;;;;5077113;28;19947;-56
2021/08/01 05:30:25;;;;;;;;;;;14.90;99.90;;;;;;5073883;28;20415;-56
2021/08/01 05:33:13;;;;;;;;;;;14.80;99.90;;;;;;5077816;28;19939;-56
2021/08/01 05:36:05;;;;;;;;;;;14.90;99.90;;;;;;5079887;28;19930;-56
2021/08/01 05:39:17;;;;;;;;;;;14.80;99.90;;;;;;5080745;28;19935;-57
2021/08/01 05:42:07;;;;;;;;;;;14.80;99.90;;;;;;5074443;28;19931;-56
2021/08/01 05:44:56;;;;;;;;;;;14.80;99.90;;;;;;5070779;28;19975;-56
2021/08/01 05:47:45;;;;;;;;;;;14.80;99.90;;;;;;5077325;28;19986;-56
2021/08/01 05:50:33;;;;;;;;;;;14.80;99.90;;;;;;5070964;28;19977;-56
2021/08/01 05:53:22;;;;;;;;;;;14.80;99.90;;;;;;5096186;28;19953;-58
2021/08/01 05:56:11;;;;;;;;;;;14.80;99.90;;;;;;5081729;28;19924;-56
2021/08/01 05:59:01;;;;;;;;;;;14.80;99.90;;;;;;5079612;28;19924;-57
2021/08/01 06:01:50;;;;;;;;;;;14.70;99.90;;;;;;5070439;28;19931;-56
2021/08/01 06:04:38;;;;;;;;;;;14.70;99.90;;;;;;5068871;28;19978;-56
2021/08/01 06:07:27;;;;;;;;;;;14.80;99.90;;;;;;5070457;28;19932;-59
2021/08/01 06:13:27;;;;;;;;;;;14.80;99.90;;;;;;5070909;28;19996;-56
2021/08/01 06:16:17;;;;;;;;;;;14.80;99.90;;;;;;5070301;28;20382;-59
2021/08/01 06:19:06;;;;;;;;;;;14.90;99.90;;;;;;5065684;28;20002;-57
2021/08/01 06:21:55;;;;;;;;;;;14.90;99.90;;;;;;5071966;28;19985;-56
2021/08/01 06:24:43;;;;;;;;;;;14.80;99.90;;;;;;5063597;28;20265;-56
2021/08/01 06:27:32;;;;;;;;;;;14.90;99.90;;;;;;5077503;28;20454;-56
2021/08/01 06:30:20;;;;;;;;;;;14.90;99.90;;;;;;5071522;28;19925;-57
2021/08/01 06:33:10;;;;;;;;;;;14.80;99.90;;;;;;5077052;28;20011;-57
2021/08/01 06:35:59;;;;;;;;;;;14.90;99.90;;;;;;5072005;28;20295;-56
2021/08/01 06:38:48;;;;;;;;;;;15.00;99.90;;;;;;5071541;28;20153;-57
2021/08/01 06:41:37;;;;;;;;;;;15.10;99.90;;;;;;5070389;28;19935;-57
2021/08/01 06:44:31;;;;;;;;;;;15.20;99.90;;;;;;5075972;28;19924;-60
2021/08/01 06:47:20;;;;;;;;;;;15.10;99.90;;;;;;5071260;28;19934;-57
2021/08/01 06:50:10;;;;;;;;;;;15.20;99.90;;;;;;5077405;28;19935;-57
2021/08/01 06:52:59;;;;;;;;;;;15.10;99.90;;;;;;5071763;28;19935;-57
2021/08/01 06:55:47;;;;;;;;;;;15.10;99.90;;;;;;5075445;28;19932;-56
2021/08/01 06:58:36;;;;;;;;;;;15.10;99.90;;;;;;5078695;28;19925;-56
2021/08/01 07:01:24;;;;;;;;;;;15.20;99.90;;;;;;5080439;28;19985;-59
2021/08/01 07:04:13;;;;;;;;;;;15.30;99.90;;;;;;5079973;28;19925;-56
2021/08/01 07:07:03;;;;;;;;;;;15.50;99.90;;;;;;5085111;28;19932;-56
2021/08/01 07:10:17;;;;;;;;;;;15.50;99.90;;;;;;5087263;28;20440;-56
2021/08/01 07:13:06;;;;;;;;;;;15.60;99.90;;;;;;5084284;28;19931;-55
2021/08/01 07:16:00;;;;;;;;;;;15.70;99.90;;;;;;5074547;28;20032;-55
2021/08/01 07:18:48;;;;;;;;;;;15.70;99.90;;;;;;5072379;28;19925;-55
2021/08/01 07:21:37;;;;;;;;;;;15.70;99.90;;;;;;5074211;28;20045;-55
2021/08/01 07:24:27;;;;;;;;;;;15.50;99.90;;;;;;5074598;28;19931;-55
2021/08/01 07:27:15;;;;;;;;;;;15.70;99.90;;;;;;5071952;28;19925;-55
2021/08/01 07:30:04;;;;;;;;;;;15.90;99.90;;;;;;5086629;28;19928;-56
2021/08/01 07:32:53;;;;;;;;;;;16.10;99.90;;;;;;5080518;28;20367;-55
2021/08/01 07:35:42;;;;;;;;;;;16.10;99.90;;;;;;5083196;28;20311;-55
2021/08/01 07:38:31;;;;;;;;;;;16.20;99.90;;;;;;5090009;28;19931;-58
2021/08/01 07:41:21;;;;;;;;;;;16.20;99.90;;;;;;5076200;28;19986;-55
2021/08/01 07:44:09;;;;;;;;;;;16.20;99.90;;;;;;5081373;28;20125;-56
2021/08/01 07:46:58;;;;;;;;;;;16.50;99.90;;;;;;5078348;28;19924;-55
2021/08/01 07:49:48;;;;;;;;;;;17.00;99.90;;;;;;5079995;28;19924;-55
2021/08/01 07:52:36;;;;;;;;;;;17.30;99.90;;;;;;5082569;28;19974;-56
2021/08/01 07:55:25;;;;;;;;;;;17.60;99.90;;;;;;5081463;28;20261;-55
2021/08/01 07:58:15;;;;;;;;;;;17.10;99.90;;;;;;5086119;28;20294;-56
2021/08/01 08:01:28;;;;;;;;;;;17.10;99.90;;;;;;5086042;28;19931;-55
2021/08/01 08:04:42;;;;;;;;;;;17.10;99.90;;;;;;5078531;28;19924;-55
2021/08/01 08:07:31;;;;;;;;;;;17.20;99.90;;;;;;5064985;28;19925;-58
2021/08/01 08:10:22;;;;;;;;;;;17.10;99.90;;;;;;5072768;28;19924;-58
2021/08/01 08:13:11;;;;;;;;;;;17.20;99.90;;;;;;5073947;28;19925;-56
2021/08/01 08:16:01;;;;;;;;;;;17.20;99.90;;;;;;5085255;28;20007;-55
2021/08/01 08:18:50;;;;;;;;;;;17.20;99.90;;;;;;5087653;28;19928;-55
2021/08/01 08:21:38;;;;;;;;;;;17.20;99.90;;;;;;5085847;28;20364;-56
2021/08/01 08:24:27;;;;;;;;;;;17.40;99.90;;;;;;5083122;28;19924;-55
2021/08/01 08:27:16;;;;;;;;;;;17.60;99.90;;;;;;5080218;28;19925;-55
2021/08/01 08:30:05;;;;;;;;;;;17.60;99.90;;;;;;5083281;28;19924;-56
2021/08/01 08:32:55;;;;;;;;;;;17.70;99.90;;;;;;5077205;28;19931;-56
2021/08/01 08:35:44;;;;;;;;;;;17.70;99.90;;;;;;5088312;28;19924;-56
2021/08/01 08:38:32;;;;;;;;;;;17.50;99.90;;;;;;5087209;28;19924;-55
2021/08/01 08:41:21;;;;;;;;;;;17.80;99.90;;;;;;5082532;28;19986;-55
2021/08/01 08:44:10;;;;;;;;;;;18.50;99.90;;;;;;5087446;28;19925;-56
2021/08/01 08:46:59;;;;;;;;;;;19.10;99.90;;;;;;5097214;28;19930;-58
2021/08/01 08:49:50;;;;;;;;;;;19.30;99.90;;;;;;5080772;28;19928;-55
2021/08/01 08:52:39;;;;;;;;;;;19.30;99.90;;;;;;5084679;28;20270;-55
2021/08/01 08:55:28;;;;;;;;;;;19.70;99.90;;;;;;5092649;28;19938;-55
2021/08/01 08:58:20;;;;;;;;;;;19.50;99.90;;;;;;5083878;28;19990;-55
2021/08/01 09:01:13;;;;;;;;;;;20.40;99.90;;;;;;5072666;28;20020;-55
2021/08/01 09:04:02;;;;;;;;;;;21.40;99.90;;;;;;5097258;28;19924;-55
2021/08/01 09:06:56;;;;;;;;;;;23.30;99.90;;;;;;5077901;28;19995;-55
2021/08/01 09:09:45;;;;;;;;;;;26.70;95.90;;;;;;5077908;28;19948;-55
2021/08/01 09:12:40;;;;;;;;;;;25.90;93.80;;;;;;5075303;28;20925;-56
2021/08/01 09:15:29;;;;;;;;;;;26.30;93.70;;;;;;5068205;28;19987;-57
2021/08/01 09:18:18;;;;;;;;;;;26.00;93.60;;;;;;5071984;28;20808;-55
2021/08/01 09:21:07;;;;;;;;;;;24.00;96.40;;;;;;5091491;28;19924;-55
2021/08/01 09:23:56;;;;;;;;;;;22.80;99.90;;;;;;5084740;28;20361;-55
2021/08/01 09:26:46;;;;;;;;;;;21.90;99.90;;;;;;5085018;28;20260;-55
2021/08/01 09:29:48;;;;;;;;;;;21.40;99.90;;;;;;5080269;28;19976;-55
2021/08/01 09:32:45;;;;;;;;;;;20.80;99.90;;;;;;5088808;28;19931;-55
2021/08/01 09:35:34;;;;;;;;;;;20.00;99.90;;;;;;5087454;28;19932;-55
2021/08/01 09:38:22;;;;;;;;;;;19.70;99.90;;;;;;5084625;28;20005;-56
2021/08/01 09:41:12;;;;;;;;;;;19.60;99.90;;;;;;5078827;28;19928;-56
2021/08/01 09:44:02;;;;;;;;;;;19.90;99.90;;;;;;5085595;28;19939;-58
2021/08/01 09:46:55;;;;;;;;;;;20.10;99.90;;;;;;5084434;28;19924;-55
2021/08/01 09:50:04;;;;;;;;;;;20.00;99.90;;;;;;5086915;28;19924;-55
2021/08/01 09:52:52;;;;;;;;;;;20.20;99.90;;;;;;5086818;28;20355;-56
2021/08/01 09:55:40;;;;;;;;;;;20.30;99.90;;;;;;5080904;28;19928;-56
2021/08/01 09:58:36;;;;;;;;;;;20.20;99.90;;;;;;5081934;28;20009;-55
2021/08/01 10:01:25;;;;;;;;;;;20.20;99.90;;;;;;5060944;28;19929;-56
2021/08/01 10:04:21;;;;;;;;;;;20.80;99.90;;;;;;5063295;28;20362;-56
2021/08/01 10:07:15;;;;;;;;;;;20.80;99.90;;;;;;5067882;28;19986;-56
2021/08/01 10:10:19;;;;;;;;;;;20.70;99.90;;;;;;5064577;28;19928;-56
2021/08/01 10:13:08;;;;;;;;;;;20.70;99.90;;;;;;5065859;28;19924;-56
2021/08/01 10:15:58;;;;;;;;;;;20.40;99.90;;;;;;5061966;28;19924;-56
2021/08/01 10:18:48;;;;;;;;;;;20.60;99.90;;;;;;5060831;28;19940;-56
2021/08/01 10:21:38;;;;;;;;;;;20.50;99.90;;;;;;5065184;28;20025;-57
2021/08/01 10:24:28;;;;;;;;;;;20.50;99.90;;;;;;5057971;28;20003;-55
2021/08/01 10:27:17;;;;;;;;;;;20.50;99.90;;;;;;5065639;28;20426;-55
2021/08/01 10:30:06;;;;;;;;;;;20.70;99.90;;;;;;5070776;28;19925;-56
2021/08/01 10:33:00;;;;;;;;;;;21.00;99.90;;;;;;5063116;28;19928;-56
2021/08/01 10:35:52;;;;;;;;;;;21.10;99.90;;;;;;5054287;28;19925;-59
2021/08/01 10:38:41;;;;;;;;;;;21.00;99.90;;;;;;5058371;28;19931;-56
2021/08/01 10:41:31;;;;;;;;;;;20.90;99.90;;;;;;5059956;28;19924;-55
2021/08/01 10:44:20;;;;;;;;;;;20.50;99.90;;;;;;5066612;28;19983;-56
2021/08/01 10:47:36;;;;;;;;;;;20.50;99.90;;;;;;5069118;28;19976;-55
2021/08/01 10:50:27;;;;;;;;;;;20.20;99.90;;;;;;5071057;28;20058;-56
2021/08/01 10:53:22;;;;;;;;;;;20.10;99.90;;;;;;5060461;28;19928;-55
2021/08/01 10:56:29;;;;;;;;;;;20.10;99.90;;;;;;5068250;28;19999;-58
2021/08/01 10:59:32;;;;;;;;;;;20.10;99.90;;;;;;5054185;28;19932;-56
2021/08/01 11:02:22;;;;;;;;;;;19.90;99.90;;;;;;5072034;28;19954;-56
2021/08/01 11:05:29;;;;;;;;;;;19.80;99.90;;;;;;5076327;28;20491;-55
2021/08/01 11:08:19;;;;;;;;;;;19.80;99.90;;;;;;5078037;28;19931;-58
2021/08/01 11:11:36;;;;;;;;;;;19.70;99.90;;;;;;5077399;28;20465;-56
2021/08/01 11:14:44;;;;;;;;;;;19.80;99.90;;;;;;5080360;28;19928;-56
2021/08/01 11:18:05;;;;;;;;;;;20.00;99.90;;;;;;5087866;28;20280;-56
2021/08/01 11:20:54;;;;;;;;;;;20.20;99.90;;;;;;5049188;28;19925;-56
2021/08/01 11:24:01;;;;;;;;;;;20.00;99.90;;;;;;5046669;28;19929;-57
2021/08/01 11:27:11;;;;;;;;;;;20.00;99.90;;;;;;5043425;28;19924;-56
2021/08/01 11:30:03;;;;;;;;;;;19.90;99.90;;;;;;5047598;28;19972;-56
2021/08/01 11:32:52;;;;;;;;;;;19.90;99.90;;;;;;5044205;28;20376;-56
2021/08/01 11:35:41;;;;;;;;;;;20.00;99.90;;;;;;5048925;28;19925;-55
2021/08/01 11:38:54;;;;;;;;;;;20.00;99.90;;;;;;5045310;28;20309;-56
2021/08/01 11:41:45;;;;;;;;;;;20.20;99.90;;;;;;5063621;28;20389;-56
2021/08/01 11:44:55;;;;;;;;;;;19.40;99.90;;;;;;5054903;28;19929;-56
2021/08/01 11:47:45;;;;;;;;;;;18.70;99.90;;;;;;5051503;28;19925;-56
2021/08/01 11:50:34;;;;;;;;;;;18.40;99.90;;;;;;5050762;28;19964;-55
2021/08/01 11:53:23;;;;;;;;;;;18.50;99.90;;;;;;5087935;28;19960;-56
2021/08/01 11:56:11;;;;;;;;;;;18.60;99.90;;;;;;5080293;28;19925;-56
2021/08/01 11:59:00;;;;;;;;;;;18.70;99.90;;;;;;5076137;28;19927;-56
2021/08/01 12:01:51;;;;;;;;;;;18.80;99.90;;;;;;5080482;28;19971;-56
2021/08/01 12:04:41;;;;;;;;;;;19.20;99.90;;;;;;5080969;28;20011;-56
2021/08/01 12:07:40;;;;;;;;;;;19.20;99.90;;;;;;5088129;28;19924;-56
2021/08/01 12:10:29;;;;;;;;;;;19.20;99.90;;;;;;5079277;28;19924;-56
2021/08/01 12:13:18;;;;;;;;;;;19.20;99.90;;;;;;5086903;28;19924;-56
2021/08/01 12:16:16;;;;;;;;;;;19.40;99.90;;;;;;5094155;28;19924;-56
2021/08/01 12:19:16;;;;;;;;;;;19.50;99.90;;;;;;5089020;28;20021;-56
2021/08/01 12:22:06;;;;;;;;;;;19.80;99.90;;;;;;5083542;28;19935;-56
2021/08/01 12:24:56;;;;;;;;;;;20.20;99.90;;;;;;5089445;28;19924;-56
2021/08/01 12:27:45;;;;;;;;;;;20.40;99.90;;;;;;5085856;28;20054;-57
2021/08/01 12:30:33;;;;;;;;;;;20.50;99.90;;;;;;5079920;28;19929;-55
2021/08/01 12:33:22;;;;;;;;;;;20.60;99.90;;;;;;5077645;28;19925;-56
2021/08/01 12:36:24;;;;;;;;;;;20.80;99.90;;;;;;5088677;28;20263;-57
2021/08/01 12:39:17;;;;;;;;;;;21.10;99.90;;;;;;5088657;28;19925;-56
2021/08/01 12:42:07;;;;;;;;;;;21.30;99.90;;;;;;5089329;28;19924;-56
2021/08/01 12:44:57;;;;;;;;;;;21.20;99.90;;;;;;5092298;28;19924;-56
2021/08/01 12:47:47;;;;;;;;;;;20.80;99.90;;;;;;5091862;28;19924;-56
2021/08/01 12:50:36;;;;;;;;;;;20.90;99.90;;;;;;5092808;28;19924;-55
2021/08/01 12:53:26;;;;;;;;;;;20.90;99.90;;;;;;5087963;28;20384;-56
2021/08/01 12:56:16;;;;;;;;;;;20.40;99.90;;;;;;5080408;28;20066;-55
2021/08/01 12:59:11;;;;;;;;;;;20.50;99.90;;;;;;5093337;28;20189;-55
2021/08/01 13:01:59;;;;;;;;;;;20.50;99.90;;;;;;5075117;28;20258;-55
2021/08/01 13:04:48;;;;;;;;;;;20.50;99.90;;;;;;5086239;28;19998;-55
2021/08/01 13:07:44;;;;;;;;;;;20.50;99.90;;;;;;5091301;28;19931;-55
2021/08/01 13:10:48;;;;;;;;;;;20.50;99.90;;;;;;5081563;28;19935;-55
2021/08/01 13:13:49;;;;;;;;;;;20.60;99.90;;;;;;5069349;28;20380;-55
2021/08/01 13:16:49;;;;;;;;;;;20.60;99.90;;;;;;5081044;28;19971;-58
2021/08/01 13:19:38;;;;;;;;;;;20.80;99.90;;;;;;5080051;28;19924;-55
2021/08/01 13:22:34;;;;;;;;;;;20.90;99.90;;;;;;5081661;28;19954;-55
2021/08/01 13:25:32;;;;;;;;;;;20.50;99.90;;;;;;5086363;28;19982;-56
2021/08/01 13:28:35;;;;;;;;;;;20.70;99.90;;;;;;5101995;27;19924;-55
2021/08/01 13:31:28;;;;;;;;;;;20.60;99.90;;;;;;5087018;28;20016;-55
2021/08/01 13:34:17;;;;;;;;;;;20.70;99.90;;;;;;5081270;28;20010;-55
2021/08/01 13:37:16;;;;;;;;;;;20.00;99.90;;;;;;5087323;28;19924;-55
2021/08/01 13:40:05;;;;;;;;;;;20.20;99.90;;;;;;5078176;28;19939;-55
2021/08/01 13:42:56;;;;;;;;;;;20.40;99.90;;;;;;5084783;28;19924;-56
2021/08/01 13:45:45;;;;;;;;;;;20.00;99.90;;;;;;5091138;28;19928;-55
2021/08/01 13:48:35;;;;;;;;;;;20.00;99.90;;;;;;5091664;28;19924;-55
2021/08/01 13:51:24;;;;;;;;;;;19.70;99.90;;;;;;5077203;28;20387;-58
2021/08/01 13:54:13;;;;;;;;;;;19.40;99.90;;;;;;5083994;28;19924;-55
2021/08/01 13:57:03;;;;;;;;;;;19.60;99.90;;;;;;5076903;28;19924;-55
2021/08/01 13:59:52;;;;;;;;;;;19.40;99.90;;;;;;5073427;28;19931;-55
2021/08/01 14:02:40;;;;;;;;;;;19.30;99.90;;;;;;5085116;28;20024;-55
2021/08/01 14:05:32;;;;;;;;;;;19.20;99.90;;;;;;5083233;28;20386;-55
2021/08/01 14:08:21;;;;;;;;;;;19.10;99.90;;;;;;5090230;28;20016;-55
2021/08/01 14:11:09;;;;;;;;;;;18.90;99.90;;;;;;5085161;28;19924;-55
2021/08/01 14:13:59;;;;;;;;;;;18.80;99.90;;;;;;5085609;28;19959;-55
2021/08/01 14:16:47;;;;;;;;;;;18.80;99.90;;;;;;5065793;28;20002;-55
2021/08/01 14:19:36;;;;;;;;;;;18.80;99.90;;;;;;5084900;28;19971;-56
2021/08/01 14:22:26;;;;;;;;;;;18.80;99.90;;;;;;5076667;28;20406;-55
2021/08/01 14:25:14;;;;;;;;;;;19.10;99.90;;;;;;5077852;28;19924;-55
2021/08/01 14:28:04;;;;;;;;;;;19.30;99.90;;;;;;5079494;28;19931;-55
2021/08/01 14:30:52;;;;;;;;;;;19.00;99.90;;;;;;5074514;28;19928;-55
2021/08/01 14:33:45;;;;;;;;;;;19.10;99.90;;;;;;5087172;28;19924;-55
2021/08/01 14:36:34;;;;;;;;;;;18.90;99.90;;;;;;5081466;28;20326;-59
2021/08/01 14:39:25;;;;;;;;;;;19.10;99.90;;;;;;5099423;28;19931;-55
2021/08/01 14:42:15;;;;;;;;;;;19.20;99.90;;;;;;5088116;28;20352;-57
2021/08/01 14:45:04;;;;;;;;;;;19.20;99.90;;;;;;5088365;28;19924;-56
2021/08/01 14:47:57;;;;;;;;;;;19.00;99.90;;;;;;5067481;28;19980;-56
2021/08/01 14:50:49;;;;;;;;;;;19.60;99.90;;;;;;5082593;28;20351;-55
2021/08/01 14:53:37;;;;;;;;;;;20.30;99.90;;;;;;5076409;28;19924;-56
2021/08/01 14:56:29;;;;;;;;;;;21.00;99.90;;;;;;5081015;28;19924;-55
2021/08/01 14:59:17;;;;;;;;;;;21.40;99.90;;;;;;5078580;28;19924;-55
2021/08/01 15:02:13;;;;;;;;;;;20.90;99.90;;;;;;5078269;28;21532;-56
2021/08/01 15:05:03;;;;;;;;;;;21.10;99.90;;;;;;5089586;28;19950;-56
2021/08/01 15:07:58;;;;;;;;;;;21.10;99.90;;;;;;5084223;28;20299;-56
2021/08/01 15:10:51;;;;;;;;;;;21.50;99.90;;;;;;5071978;28;19931;-56
2021/08/01 15:13:45;;;;;;;;;;;21.80;99.90;;;;;;5081623;28;19924;-56
2021/08/01 15:16:35;;;;;;;;;;;22.00;99.90;;;;;;5075223;28;20265;-56
2021/08/01 15:19:26;;;;;;;;;;;22.10;99.90;;;;;;5076762;28;19931;-56
2021/08/01 15:22:20;;;;;;;;;;;21.70;99.90;;;;;;5081705;28;20019;-56
2021/08/01 15:25:10;;;;;;;;;;;20.80;99.90;;;;;;5078761;28;20297;-56
2021/08/01 15:27:59;;;;;;;;;;;20.30;99.90;;;;;;5087179;28;19986;-56
2021/08/01 15:30:49;;;;;;;;;;;20.50;99.90;;;;;;5077952;28;19932;-55
2021/08/01 15:33:37;;;;;;;;;;;20.00;99.90;;;;;;5087206;28;19973;-55
2021/08/01 15:36:27;;;;;;;;;;;19.80;99.90;;;;;;5079686;28;20071;-56
2021/08/01 15:39:17;;;;;;;;;;;19.90;99.90;;;;;;5089772;28;20267;-55
2021/08/01 15:42:07;;;;;;;;;;;19.70;99.90;;;;;;5080164;28;19924;-59
2021/08/01 15:44:56;;;;;;;;;;;19.90;99.90;;;;;;5082093;28;19924;-55
2021/08/01 15:47:46;;;;;;;;;;;19.90;99.90;;;;;;5084689;28;19972;-56
2021/08/01 15:50:37;;;;;;;;;;;19.80;99.90;;;;;;5091142;28;19928;-56
2021/08/01 15:53:29;;;;;;;;;;;18.80;99.90;;;;;;5085392;28;19924;-56
2021/08/01 15:56:19;;;;;;;;;;;17.90;99.90;;;;;;5088895;28;20411;-56
2021/08/01 15:59:12;;;;;;;;;;;17.00;99.90;;;;;;5090951;28;19935;-56
2021/08/01 16:02:08;;;;;;;;;;;17.10;99.90;;;;;;5081936;28;19935;-56
2021/08/01 16:05:02;;;;;;;;;;;17.00;99.90;;;;;;5082211;28;19935;-56
2021/08/01 16:07:54;;;;;;;;;;;17.10;99.90;;;;;;5084807;28;19956;-56
2021/08/01 16:10:43;;;;;;;;;;;17.40;99.90;;;;;;5077556;28;19924;-56
2021/08/01 16:13:35;;;;;;;;;;;17.60;99.90;;;;;;5082363;28;19931;-56
2021/08/01 16:16:25;;;;;;;;;;;17.40;99.90;;;;;;5075471;28;19925;-56
2021/08/01 16:19:14;;;;;;;;;;;17.30;99.90;;;;;;5091369;28;20342;-56
2021/08/01 16:22:04;;;;;;;;;;;17.20;99.90;;;;;;5090417;28;19924;-56
2021/08/01 16:24:54;;;;;;;;;;;17.20;99.90;;;;;;5083317;28;19928;-57
2021/08/01 16:27:44;;;;;;;;;;;17.20;99.90;;;;;;5089218;28;19994;-56
2021/08/01 16:30:58;;;;;;;;;;;17.20;99.90;;;;;;5082836;28;19931;-55
2021/08/01 16:33:49;;;;;;;;;;;17.20;99.90;;;;;;5089026;28;20051;-56
2021/08/01 16:36:37;;;;;;;;;;;17.20;99.90;;;;;;5092932;28;19932;-56
2021/08/01 16:39:33;;;;;;;;;;;17.40;99.90;;;;;;5080652;28;19958;-57
2021/08/01 16:42:25;;;;;;;;;;;17.70;99.90;;;;;;5084121;28;19959;-55
2021/08/01 16:45:15;;;;;;;;;;;17.90;99.90;;;;;;5071969;28;20279;-56